sensor_id;sensor_type;location;lat;lon;timestamp;P1;durP1;ratioP1;P2;durP2;ratioP2
4642;SDS011;2334;48.710;9.622;2024-02-23T00:01:12;0.40;;;0.40;;
4642;SDS011;2334;48.710;9.622;2024-02-23T00:03:38;4.63;;;0.63;;
4642;SDS011;2334;48.710;9.622;2024-02-23T00:06:10;0.40;;;0.40;;
4642;SDS011;2334;48.710;9.622;2024-02-23T00:08:37;0.30;;;0.30;;
4642;SDS011;2334;48.710;9.622;2024-02-23T00:11:07;0.73;;;0.40;;
4642;SDS011;2334;48.710;9.622;2024-02-23T00:13:34;0.40;;;0.40;;
4642;SDS011;2334;48.710;9.622;2024-02-23T00:16:01;1.33;;;0.40;;
4642;SDS011;2334;48.710;9.622;2024-02-23T00:18:29;0.40;;;0.40;;
4642;SDS011;2334;48.710;9.622;2024-02-23T00:20:56;0.47;;;0.47;;
4642;SDS011;2334;48.710;9.622;2024-02-23T00:23:26;0.30;;;0.30;;
4642;SDS011;2334;48.710;9.622;2024-02-23T00:25:53;0.40;;;0.40;;
4642;SDS011;2334;48.710;9.622;2024-02-23T00:28:20;0.40;;;0.40;;
4642;SDS011;2334;48.710;9.622;2024-02-23T00:30:47;0.40;;;0.40;;
4642;SDS011;2334;48.710;9.622;2024-02-23T00:33:14;0.40;;;0.40;;
4642;SDS011;2334;48.710;9.622;2024-02-23T00:35:41;0.30;;;0.30;;
4642;SDS011;2334;48.710;9.622;2024-02-23T00:38:08;0.43;;;0.40;;
4642;SDS011;2334;48.710;9.622;2024-02-23T00:40:37;0.40;;;0.40;;
4642;SDS011;2334;48.710;9.622;2024-02-23T00:43:04;0.50;;;0.50;;
4642;SDS011;2334;48.710;9.622;2024-02-23T00:45:31;0.90;;;0.40;;
4642;SDS011;2334;48.710;9.622;2024-02-23T00:47:58;0.40;;;0.40;;
4642;SDS011;2334;48.710;9.622;2024-02-23T00:50:25;0.40;;;0.40;;
4642;SDS011;2334;48.710;9.622;2024-02-23T00:52:52;0.30;;;0.30;;
4642;SDS011;2334;48.710;9.622;2024-02-23T00:55:19;0.33;;;0.33;;
4642;SDS011;2334;48.710;9.622;2024-02-23T00:57:48;0.40;;;0.40;;
4642;SDS011;2334;48.710;9.622;2024-02-23T01:00:15;0.50;;;0.50;;
4642;SDS011;2334;48.710;9.622;2024-02-23T01:02:42;0.70;;;0.43;;
4642;SDS011;2334;48.710;9.622;2024-02-23T01:05:09;0.40;;;0.40;;
4642;SDS011;2334;48.710;9.622;2024-02-23T01:07:36;0.50;;;0.50;;
4642;SDS011;2334;48.710;9.622;2024-02-23T01:10:03;2.40;;;0.57;;
4642;SDS011;2334;48.710;9.622;2024-02-23T01:12:30;0.60;;;0.60;;
4642;SDS011;2334;48.710;9.622;2024-02-23T01:14:59;0.53;;;0.43;;
4642;SDS011;2334;48.710;9.622;2024-02-23T01:17:25;0.30;;;0.30;;
4642;SDS011;2334;48.710;9.622;2024-02-23T01:19:52;0.40;;;0.40;;
4642;SDS011;2334;48.710;9.622;2024-02-23T01:22:19;0.77;;;0.40;;
4642;SDS011;2334;48.710;9.622;2024-02-23T01:24:46;0.37;;;0.37;;
4642;SDS011;2334;48.710;9.622;2024-02-23T01:27:13;0.40;;;0.40;;
4642;SDS011;2334;48.710;9.622;2024-02-23T01:29:40;0.93;;;0.40;;
4642;SDS011;2334;48.710;9.622;2024-02-23T01:32:08;0.40;;;0.40;;
4642;SDS011;2334;48.710;9.622;2024-02-23T01:34:34;0.50;;;0.50;;
4642;SDS011;2334;48.710;9.622;2024-02-23T01:37:01;0.93;;;0.50;;
4642;SDS011;2334;48.710;9.622;2024-02-23T01:39:28;0.50;;;0.50;;
4642;SDS011;2334;48.710;9.622;2024-02-23T01:41:54;0.47;;;0.47;;
4642;SDS011;2334;48.710;9.622;2024-02-23T01:44:21;1.40;;;0.40;;
4642;SDS011;2334;48.710;9.622;2024-02-23T01:46:48;0.40;;;0.40;;
4642;SDS011;2334;48.710;9.622;2024-02-23T01:49:17;0.77;;;0.40;;
4642;SDS011;2334;48.710;9.622;2024-02-23T01:51:46;0.43;;;0.43;;
4642;SDS011;2334;48.710;9.622;2024-02-23T01:54:14;1.70;;;0.40;;
4642;SDS011;2334;48.710;9.622;2024-02-23T01:56:42;0.50;;;0.50;;
4642;SDS011;2334;48.710;9.622;2024-02-23T01:59:09;1.57;;;0.40;;
4642;SDS011;2334;48.710;9.622;2024-02-23T02:01:37;0.40;;;0.40;;
4642;SDS011;2334;48.710;9.622;2024-02-23T02:04:04;0.60;;;0.60;;
4642;SDS011;2334;48.710;9.622;2024-02-23T02:06:32;1.80;;;0.50;;
4642;SDS011;2334;48.710;9.622;2024-02-23T02:08:59;1.03;;;0.60;;
4642;SDS011;2334;48.710;9.622;2024-02-23T02:11:26;2.53;;;0.50;;
4642;SDS011;2334;48.710;9.622;2024-02-23T02:13:53;0.50;;;0.50;;
4642;SDS011;2334;48.710;9.622;2024-02-23T02:16:23;0.50;;;0.40;;
4642;SDS011;2334;48.710;9.622;2024-02-23T02:18:51;1.93;;;0.50;;
4642;SDS011;2334;48.710;9.622;2024-02-23T02:21:18;1.70;;;0.67;;
4642;SDS011;2334;48.710;9.622;2024-02-23T02:23:50;0.40;;;0.40;;
4642;SDS011;2334;48.710;9.622;2024-02-23T02:26:17;0.40;;;0.37;;
4642;SDS011;2334;48.710;9.622;2024-02-23T02:28:44;1.30;;;0.40;;
4642;SDS011;2334;48.710;9.622;2024-02-23T02:31:11;0.47;;;0.47;;
4642;SDS011;2334;48.710;9.622;2024-02-23T02:33:41;3.30;;;0.63;;
4642;SDS011;2334;48.710;9.622;2024-02-23T02:36:08;2.60;;;0.83;;
4642;SDS011;2334;48.710;9.622;2024-02-23T02:38:35;2.83;;;0.40;;
4642;SDS011;2334;48.710;9.622;2024-02-23T02:41:03;0.70;;;0.50;;
4642;SDS011;2334;48.710;9.622;2024-02-23T02:43:30;8.23;;;0.50;;
4642;SDS011;2334;48.710;9.622;2024-02-23T02:45:57;5.80;;;0.70;;
4642;SDS011;2334;48.710;9.622;2024-02-23T02:48:24;1.47;;;0.40;;
4642;SDS011;2334;48.710;9.622;2024-02-23T02:50:52;0.50;;;0.50;;
4642;SDS011;2334;48.710;9.622;2024-02-23T02:53:17;0.40;;;0.40;;
4642;SDS011;2334;48.710;9.622;2024-02-23T02:55:44;1.13;;;0.47;;
4642;SDS011;2334;48.710;9.622;2024-02-23T02:58:13;0.97;;;0.40;;
4642;SDS011;2334;48.710;9.622;2024-02-23T03:00:40;0.43;;;0.43;;
4642;SDS011;2334;48.710;9.622;2024-02-23T03:03:07;0.30;;;0.30;;
4642;SDS011;2334;48.710;9.622;2024-02-23T03:05:33;0.50;;;0.30;;
4642;SDS011;2334;48.710;9.622;2024-02-23T03:08:00;0.30;;;0.30;;
4642;SDS011;2334;48.710;9.622;2024-02-23T03:10:27;0.40;;;0.40;;
4642;SDS011;2334;48.710;9.622;2024-02-23T03:12:54;0.40;;;0.40;;
4642;SDS011;2334;48.710;9.622;2024-02-23T03:15:22;0.40;;;0.40;;
4642;SDS011;2334;48.710;9.622;2024-02-23T03:17:49;0.40;;;0.40;;
4642;SDS011;2334;48.710;9.622;2024-02-23T03:20:16;0.80;;;0.40;;
4642;SDS011;2334;48.710;9.622;2024-02-23T03:22:43;0.40;;;0.40;;
4642;SDS011;2334;48.710;9.622;2024-02-23T03:25:10;0.40;;;0.40;;
4642;SDS011;2334;48.710;9.622;2024-02-23T03:27:37;4.80;;;0.60;;
4642;SDS011;2334;48.710;9.622;2024-02-23T03:30:05;0.40;;;0.40;;
4642;SDS011;2334;48.710;9.622;2024-02-23T03:32:35;0.53;;;0.53;;
4642;SDS011;2334;48.710;9.622;2024-02-23T03:35:05;0.43;;;0.43;;
4642;SDS011;2334;48.710;9.622;2024-02-23T03:37:33;0.43;;;0.43;;
4642;SDS011;2334;48.710;9.622;2024-02-23T03:40:03;1.43;;;0.40;;
4642;SDS011;2334;48.710;9.622;2024-02-23T03:42:31;0.40;;;0.40;;
4642;SDS011;2334;48.710;9.622;2024-02-23T03:44:58;0.50;;;0.50;;
4642;SDS011;2334;48.710;9.622;2024-02-23T03:47:25;0.70;;;0.60;;
4642;SDS011;2334;48.710;9.622;2024-02-23T03:49:53;3.43;;;0.40;;
4642;SDS011;2334;48.710;9.622;2024-02-23T03:52:20;0.50;;;0.40;;
4642;SDS011;2334;48.710;9.622;2024-02-23T03:54:49;0.30;;;0.30;;
4642;SDS011;2334;48.710;9.622;2024-02-23T03:57:17;0.40;;;0.40;;
4642;SDS011;2334;48.710;9.622;2024-02-23T03:59:50;5.20;;;0.43;;
4642;SDS011;2334;48.710;9.622;2024-02-23T04:02:18;0.47;;;0.47;;
4642;SDS011;2334;48.710;9.622;2024-02-23T04:04:45;0.47;;;0.47;;
4642;SDS011;2334;48.710;9.622;2024-02-23T04:07:13;1.50;;;0.40;;
4642;SDS011;2334;48.710;9.622;2024-02-23T04:09:40;0.30;;;0.30;;
4642;SDS011;2334;48.710;9.622;2024-02-23T04:12:09;1.60;;;0.70;;
4642;SDS011;2334;48.710;9.622;2024-02-23T04:14:36;0.47;;;0.47;;
4642;SDS011;2334;48.710;9.622;2024-02-23T04:17:03;0.60;;;0.40;;
4642;SDS011;2334;48.710;9.622;2024-02-23T04:19:30;0.97;;;0.60;;
4642;SDS011;2334;48.710;9.622;2024-02-23T04:21:56;1.20;;;0.40;;
4642;SDS011;2334;48.710;9.622;2024-02-23T04:24:26;0.43;;;0.43;;
4642;SDS011;2334;48.710;9.622;2024-02-23T04:26:52;0.40;;;0.40;;
4642;SDS011;2334;48.710;9.622;2024-02-23T04:29:21;0.40;;;0.40;;
4642;SDS011;2334;48.710;9.622;2024-02-23T04:31:48;0.60;;;0.60;;
4642;SDS011;2334;48.710;9.622;2024-02-23T04:34:15;0.43;;;0.43;;
4642;SDS011;2334;48.710;9.622;2024-02-23T04:36:42;3.10;;;0.70;;
4642;SDS011;2334;48.710;9.622;2024-02-23T04:39:09;0.50;;;0.50;;
4642;SDS011;2334;48.710;9.622;2024-02-23T04:41:37;0.40;;;0.40;;
4642;SDS011;2334;48.710;9.622;2024-02-23T04:44:04;0.40;;;0.40;;
4642;SDS011;2334;48.710;9.622;2024-02-23T04:46:34;0.40;;;0.40;;
4642;SDS011;2334;48.710;9.622;2024-02-23T04:49:01;1.07;;;0.60;;
4642;SDS011;2334;48.710;9.622;2024-02-23T04:51:30;1.17;;;0.50;;
4642;SDS011;2334;48.710;9.622;2024-02-23T04:53:57;0.40;;;0.40;;
4642;SDS011;2334;48.710;9.622;2024-02-23T04:56:25;0.40;;;0.40;;
4642;SDS011;2334;48.710;9.622;2024-02-23T04:58:54;1.17;;;0.40;;
4642;SDS011;2334;48.710;9.622;2024-02-23T05:01:20;0.70;;;0.60;;
4642;SDS011;2334;48.710;9.622;2024-02-23T05:03:47;0.50;;;0.50;;
4642;SDS011;2334;48.710;9.622;2024-02-23T05:06:14;1.40;;;0.57;;
4642;SDS011;2334;48.710;9.622;2024-02-23T05:08:41;1.50;;;1.23;;
4642;SDS011;2334;48.710;9.622;2024-02-23T05:11:08;6.63;;;1.10;;
4642;SDS011;2334;48.710;9.622;2024-02-23T05:13:35;1.60;;;0.50;;
4642;SDS011;2334;48.710;9.622;2024-02-23T05:16:06;0.50;;;0.50;;
4642;SDS011;2334;48.710;9.622;2024-02-23T05:18:32;3.43;;;2.07;;
4642;SDS011;2334;48.710;9.622;2024-02-23T05:21:00;7.53;;;4.97;;
4642;SDS011;2334;48.710;9.622;2024-02-23T05:23:27;2.57;;;1.63;;
4642;SDS011;2334;48.710;9.622;2024-02-23T05:25:53;3.50;;;1.00;;
4642;SDS011;2334;48.710;9.622;2024-02-23T05:28:20;1.53;;;0.80;;
4642;SDS011;2334;48.710;9.622;2024-02-23T05:30:47;0.73;;;0.73;;
4642;SDS011;2334;48.710;9.622;2024-02-23T05:33:16;2.97;;;0.77;;
4642;SDS011;2334;48.710;9.622;2024-02-23T05:35:45;0.70;;;0.70;;
4642;SDS011;2334;48.710;9.622;2024-02-23T05:38:13;8.70;;;3.30;;
4642;SDS011;2334;48.710;9.622;2024-02-23T05:40:40;2.93;;;1.90;;
4642;SDS011;2334;48.710;9.622;2024-02-23T05:43:07;10.33;;;3.97;;
4642;SDS011;2334;48.710;9.622;2024-02-23T05:45:34;16.20;;;5.50;;
4642;SDS011;2334;48.710;9.622;2024-02-23T05:48:01;17.17;;;7.20;;
4642;SDS011;2334;48.710;9.622;2024-02-23T05:50:30;12.10;;;5.23;;
4642;SDS011;2334;48.710;9.622;2024-02-23T05:52:57;7.40;;;3.23;;
4642;SDS011;2334;48.710;9.622;2024-02-23T05:55:24;6.23;;;3.10;;
4642;SDS011;2334;48.710;9.622;2024-02-23T05:57:51;7.60;;;2.67;;
4642;SDS011;2334;48.710;9.622;2024-02-23T06:00:18;4.20;;;1.60;;
4642;SDS011;2334;48.710;9.622;2024-02-23T06:02:46;0.70;;;0.70;;
4642;SDS011;2334;48.710;9.622;2024-02-23T06:05:16;0.50;;;0.50;;
4642;SDS011;2334;48.710;9.622;2024-02-23T06:07:44;0.50;;;0.50;;
4642;SDS011;2334;48.710;9.622;2024-02-23T06:10:19;1.07;;;0.70;;
4642;SDS011;2334;48.710;9.622;2024-02-23T06:12:46;2.20;;;1.27;;
4642;SDS011;2334;48.710;9.622;2024-02-23T06:15:13;1.63;;;0.80;;
4642;SDS011;2334;48.710;9.622;2024-02-23T06:17:43;0.80;;;0.80;;
4642;SDS011;2334;48.710;9.622;2024-02-23T06:20:10;1.27;;;0.70;;
4642;SDS011;2334;48.710;9.622;2024-02-23T06:22:37;0.67;;;0.67;;
4642;SDS011;2334;48.710;9.622;2024-02-23T06:25:07;0.50;;;0.50;;
4642;SDS011;2334;48.710;9.622;2024-02-23T06:27:34;0.60;;;0.60;;
4642;SDS011;2334;48.710;9.622;2024-02-23T06:30:02;0.60;;;0.60;;
4642;SDS011;2334;48.710;9.622;2024-02-23T06:32:30;3.73;;;0.70;;
4642;SDS011;2334;48.710;9.622;2024-02-23T06:34:57;1.10;;;1.00;;
4642;SDS011;2334;48.710;9.622;2024-02-23T06:37:24;2.43;;;1.03;;
4642;SDS011;2334;48.710;9.622;2024-02-23T06:39:50;1.30;;;1.20;;
4642;SDS011;2334;48.710;9.622;2024-02-23T06:42:21;3.43;;;1.03;;
4642;SDS011;2334;48.710;9.622;2024-02-23T06:44:48;1.10;;;1.10;;
4642;SDS011;2334;48.710;9.622;2024-02-23T06:47:15;5.00;;;1.27;;
4642;SDS011;2334;48.710;9.622;2024-02-23T06:49:42;2.60;;;1.73;;
4642;SDS011;2334;48.710;9.622;2024-02-23T06:52:09;4.00;;;2.47;;
4642;SDS011;2334;48.710;9.622;2024-02-23T06:54:36;11.67;;;5.30;;
4642;SDS011;2334;48.710;9.622;2024-02-23T06:57:03;12.00;;;5.30;;
4642;SDS011;2334;48.710;9.622;2024-02-23T06:59:31;7.47;;;4.00;;
4642;SDS011;2334;48.710;9.622;2024-02-23T07:01:58;6.27;;;3.20;;
4642;SDS011;2334;48.710;9.622;2024-02-23T07:04:25;4.30;;;2.23;;
4642;SDS011;2334;48.710;9.622;2024-02-23T07:06:53;3.10;;;2.23;;
4642;SDS011;2334;48.710;9.622;2024-02-23T07:09:21;5.40;;;2.50;;
4642;SDS011;2334;48.710;9.622;2024-02-23T07:11:48;2.13;;;1.93;;
4642;SDS011;2334;48.710;9.622;2024-02-23T07:14:15;2.50;;;2.07;;
4642;SDS011;2334;48.710;9.622;2024-02-23T07:16:44;6.10;;;2.80;;
4642;SDS011;2334;48.710;9.622;2024-02-23T07:19:12;6.43;;;2.00;;
4642;SDS011;2334;48.710;9.622;2024-02-23T07:21:40;4.13;;;2.40;;
4642;SDS011;2334;48.710;9.622;2024-02-23T07:24:07;4.40;;;1.63;;
4642;SDS011;2334;48.710;9.622;2024-02-23T07:26:34;1.50;;;0.97;;
4642;SDS011;2334;48.710;9.622;2024-02-23T07:29:01;0.83;;;0.70;;
4642;SDS011;2334;48.710;9.622;2024-02-23T07:31:28;3.80;;;0.80;;
4642;SDS011;2334;48.710;9.622;2024-02-23T07:33:56;0.60;;;0.60;;
4642;SDS011;2334;48.710;9.622;2024-02-23T07:36:23;1.33;;;1.00;;
4642;SDS011;2334;48.710;9.622;2024-02-23T07:38:50;0.60;;;0.60;;
4642;SDS011;2334;48.710;9.622;2024-02-23T07:41:17;0.80;;;0.80;;
4642;SDS011;2334;48.710;9.622;2024-02-23T07:43:44;2.77;;;0.90;;
4642;SDS011;2334;48.710;9.622;2024-02-23T07:46:12;3.40;;;1.00;;
4642;SDS011;2334;48.710;9.622;2024-02-23T07:48:41;3.00;;;1.60;;
4642;SDS011;2334;48.710;9.622;2024-02-23T07:51:09;1.93;;;1.83;;
4642;SDS011;2334;48.710;9.622;2024-02-23T07:53:36;4.27;;;2.70;;
4642;SDS011;2334;48.710;9.622;2024-02-23T07:56:07;6.37;;;2.50;;
4642;SDS011;2334;48.710;9.622;2024-02-23T07:58:34;2.33;;;2.13;;
4642;SDS011;2334;48.710;9.622;2024-02-23T08:01:01;2.83;;;2.10;;
4642;SDS011;2334;48.710;9.622;2024-02-23T08:03:29;2.07;;;1.93;;
4642;SDS011;2334;48.710;9.622;2024-02-23T08:05:56;2.00;;;1.80;;
4642;SDS011;2334;48.710;9.622;2024-02-23T08:08:25;2.33;;;1.50;;
4642;SDS011;2334;48.710;9.622;2024-02-23T08:10:53;3.83;;;1.80;;
4642;SDS011;2334;48.710;9.622;2024-02-23T08:13:19;2.10;;;1.67;;
4642;SDS011;2334;48.710;9.622;2024-02-23T08:15:46;0.90;;;0.90;;
4642;SDS011;2334;48.710;9.622;2024-02-23T08:18:16;1.00;;;1.00;;
4642;SDS011;2334;48.710;9.622;2024-02-23T08:20:42;0.90;;;0.90;;
4642;SDS011;2334;48.710;9.622;2024-02-23T08:23:09;2.03;;;1.37;;
4642;SDS011;2334;48.710;9.622;2024-02-23T08:25:37;1.17;;;1.07;;
4642;SDS011;2334;48.710;9.622;2024-02-23T08:28:04;2.30;;;1.10;;
4642;SDS011;2334;48.710;9.622;2024-02-23T08:30:32;2.50;;;1.37;;
4642;SDS011;2334;48.710;9.622;2024-02-23T08:33:04;4.23;;;1.33;;
4642;SDS011;2334;48.710;9.622;2024-02-23T08:35:34;3.40;;;1.17;;
4642;SDS011;2334;48.710;9.622;2024-02-23T08:38:01;1.50;;;1.20;;
4642;SDS011;2334;48.710;9.622;2024-02-23T08:40:30;1.27;;;1.17;;
4642;SDS011;2334;48.710;9.622;2024-02-23T08:42:58;2.00;;;1.80;;
4642;SDS011;2334;48.710;9.622;2024-02-23T08:45:25;1.50;;;1.33;;
4642;SDS011;2334;48.710;9.622;2024-02-23T08:47:52;1.80;;;1.43;;
4642;SDS011;2334;48.710;9.622;2024-02-23T08:50:19;3.13;;;1.90;;
4642;SDS011;2334;48.710;9.622;2024-02-23T08:52:46;3.20;;;1.50;;
4642;SDS011;2334;48.710;9.622;2024-02-23T08:55:14;3.53;;;1.40;;
4642;SDS011;2334;48.710;9.622;2024-02-23T08:57:42;1.27;;;0.73;;
4642;SDS011;2334;48.710;9.622;2024-02-23T09:00:11;0.57;;;0.57;;
4642;SDS011;2334;48.710;9.622;2024-02-23T09:02:39;0.60;;;0.60;;
4642;SDS011;2334;48.710;9.622;2024-02-23T09:05:07;4.93;;;1.17;;
4642;SDS011;2334;48.710;9.622;2024-02-23T09:07:34;2.30;;;0.87;;
4642;SDS011;2334;48.710;9.622;2024-02-23T09:10:00;1.53;;;0.63;;
4642;SDS011;2334;48.710;9.622;2024-02-23T09:12:29;1.40;;;0.60;;
4642;SDS011;2334;48.710;9.622;2024-02-23T09:14:56;1.53;;;0.70;;
4642;SDS011;2334;48.710;9.622;2024-02-23T09:17:24;2.40;;;0.90;;
4642;SDS011;2334;48.710;9.622;2024-02-23T09:19:51;2.13;;;0.97;;
4642;SDS011;2334;48.710;9.622;2024-02-23T09:22:17;2.30;;;0.77;;
4642;SDS011;2334;48.710;9.622;2024-02-23T09:24:44;1.43;;;0.80;;
4642;SDS011;2334;48.710;9.622;2024-02-23T09:27:11;1.30;;;0.60;;
4642;SDS011;2334;48.710;9.622;2024-02-23T09:29:40;5.17;;;0.50;;
4642;SDS011;2334;48.710;9.622;2024-02-23T09:32:07;1.70;;;0.60;;
4642;SDS011;2334;48.710;9.622;2024-02-23T09:34:36;0.87;;;0.50;;
4642;SDS011;2334;48.710;9.622;2024-02-23T09:37:03;2.30;;;0.60;;
4642;SDS011;2334;48.710;9.622;2024-02-23T09:39:30;2.80;;;0.80;;
4642;SDS011;2334;48.710;9.622;2024-02-23T09:41:57;0.60;;;0.50;;
4642;SDS011;2334;48.710;9.622;2024-02-23T09:44:26;5.73;;;0.80;;
4642;SDS011;2334;48.710;9.622;2024-02-23T09:46:58;4.93;;;0.90;;
4642;SDS011;2334;48.710;9.622;2024-02-23T09:49:26;1.00;;;0.60;;
4642;SDS011;2334;48.710;9.622;2024-02-23T09:51:55;2.10;;;0.60;;
4642;SDS011;2334;48.710;9.622;2024-02-23T09:54:22;1.33;;;0.53;;
4642;SDS011;2334;48.710;9.622;2024-02-23T09:56:49;2.10;;;0.73;;
4642;SDS011;2334;48.710;9.622;2024-02-23T09:59:18;0.83;;;0.60;;
4642;SDS011;2334;48.710;9.622;2024-02-23T10:01:45;0.60;;;0.60;;
4642;SDS011;2334;48.710;9.622;2024-02-23T10:04:17;3.47;;;1.53;;
4642;SDS011;2334;48.710;9.622;2024-02-23T10:06:45;5.07;;;1.20;;
4642;SDS011;2334;48.710;9.622;2024-02-23T10:09:14;1.13;;;0.60;;
4642;SDS011;2334;48.710;9.622;2024-02-23T10:11:41;4.60;;;0.70;;
4642;SDS011;2334;48.710;9.622;2024-02-23T10:14:08;1.37;;;0.90;;
4642;SDS011;2334;48.710;9.622;2024-02-23T10:16:35;1.23;;;0.53;;
4642;SDS011;2334;48.710;9.622;2024-02-23T10:19:01;1.40;;;0.50;;
4642;SDS011;2334;48.710;9.622;2024-02-23T10:21:28;2.30;;;0.70;;
4642;SDS011;2334;48.710;9.622;2024-02-23T10:23:55;2.83;;;1.23;;
4642;SDS011;2334;48.710;9.622;2024-02-23T10:26:24;1.37;;;0.53;;
4642;SDS011;2334;48.710;9.622;2024-02-23T10:28:51;0.60;;;0.60;;
4642;SDS011;2334;48.710;9.622;2024-02-23T10:31:18;1.07;;;0.70;;
4642;SDS011;2334;48.710;9.622;2024-02-23T10:33:45;2.20;;;1.20;;
4642;SDS011;2334;48.710;9.622;2024-02-23T10:36:12;0.70;;;0.70;;
4642;SDS011;2334;48.710;9.622;2024-02-23T10:38:44;0.60;;;0.60;;
4642;SDS011;2334;48.710;9.622;2024-02-23T10:41:13;1.03;;;0.60;;
4642;SDS011;2334;48.710;9.622;2024-02-23T10:43:43;2.47;;;0.80;;
4642;SDS011;2334;48.710;9.622;2024-02-23T10:46:12;4.23;;;1.07;;
4642;SDS011;2334;48.710;9.622;2024-02-23T10:48:43;2.00;;;0.70;;
4642;SDS011;2334;48.710;9.622;2024-02-23T10:51:12;5.97;;;0.83;;
4642;SDS011;2334;48.710;9.622;2024-02-23T10:53:40;2.00;;;0.87;;
4642;SDS011;2334;48.710;9.622;2024-02-23T10:56:07;0.83;;;0.60;;
4642;SDS011;2334;48.710;9.622;2024-02-23T10:58:36;3.47;;;0.80;;
4642;SDS011;2334;48.710;9.622;2024-02-23T11:01:05;0.77;;;0.60;;
4642;SDS011;2334;48.710;9.622;2024-02-23T11:03:35;0.53;;;0.50;;
4642;SDS011;2334;48.710;9.622;2024-02-23T11:06:05;2.97;;;0.90;;
4642;SDS011;2334;48.710;9.622;2024-02-23T11:08:33;0.60;;;0.60;;
4642;SDS011;2334;48.710;9.622;2024-02-23T11:11:07;1.13;;;0.60;;
4642;SDS011;2334;48.710;9.622;2024-02-23T11:13:34;1.80;;;0.70;;
4642;SDS011;2334;48.710;9.622;2024-02-23T11:16:02;2.33;;;0.60;;
4642;SDS011;2334;48.710;9.622;2024-02-23T11:18:31;0.83;;;0.50;;
4642;SDS011;2334;48.710;9.622;2024-02-23T11:21:01;0.67;;;0.67;;
4642;SDS011;2334;48.710;9.622;2024-02-23T11:23:38;1.80;;;1.30;;
4642;SDS011;2334;48.710;9.622;2024-02-23T11:26:09;0.60;;;0.60;;
4642;SDS011;2334;48.710;9.622;2024-02-23T11:28:42;2.93;;;0.60;;
4642;SDS011;2334;48.710;9.622;2024-02-23T11:31:12;2.47;;;0.70;;
4642;SDS011;2334;48.710;9.622;2024-02-23T11:33:41;4.20;;;0.80;;
4642;SDS011;2334;48.710;9.622;2024-02-23T11:36:21;0.80;;;0.60;;
4642;SDS011;2334;48.710;9.622;2024-02-23T11:38:49;2.47;;;0.90;;
4642;SDS011;2334;48.710;9.622;2024-02-23T11:41:21;3.47;;;0.80;;
4642;SDS011;2334;48.710;9.622;2024-02-23T11:43:48;2.40;;;1.10;;
4642;SDS011;2334;48.710;9.622;2024-02-23T11:46:15;0.93;;;0.77;;
4642;SDS011;2334;48.710;9.622;2024-02-23T11:48:44;2.63;;;0.90;;
4642;SDS011;2334;48.710;9.622;2024-02-23T11:51:11;0.50;;;0.50;;
4642;SDS011;2334;48.710;9.622;2024-02-23T11:53:39;3.30;;;0.53;;
4642;SDS011;2334;48.710;9.622;2024-02-23T11:56:06;2.70;;;0.80;;
4642;SDS011;2334;48.710;9.622;2024-02-23T11:58:35;2.20;;;0.60;;
4642;SDS011;2334;48.710;9.622;2024-02-23T12:01:02;3.60;;;1.00;;
4642;SDS011;2334;48.710;9.622;2024-02-23T12:03:32;0.60;;;0.60;;
4642;SDS011;2334;48.710;9.622;2024-02-23T12:06:01;6.87;;;2.27;;
4642;SDS011;2334;48.710;9.622;2024-02-23T12:08:29;0.50;;;0.50;;
4642;SDS011;2334;48.710;9.622;2024-02-23T12:11:03;1.13;;;0.70;;
4642;SDS011;2334;48.710;9.622;2024-02-23T12:13:30;7.23;;;1.00;;
4642;SDS011;2334;48.710;9.622;2024-02-23T12:15:57;1.20;;;0.83;;
4642;SDS011;2334;48.710;9.622;2024-02-23T12:18:24;11.87;;;2.43;;
4642;SDS011;2334;48.710;9.622;2024-02-23T12:20:52;1.60;;;0.63;;
4642;SDS011;2334;48.710;9.622;2024-02-23T12:23:26;1.80;;;0.70;;
4642;SDS011;2334;48.710;9.622;2024-02-23T12:26:04;1.43;;;0.80;;
4642;SDS011;2334;48.710;9.622;2024-02-23T12:28:31;0.70;;;0.67;;
4642;SDS011;2334;48.710;9.622;2024-02-23T12:30:59;0.90;;;0.63;;
4642;SDS011;2334;48.710;9.622;2024-02-23T12:33:27;1.43;;;0.70;;
4642;SDS011;2334;48.710;9.622;2024-02-23T12:35:57;0.70;;;0.70;;
4642;SDS011;2334;48.710;9.622;2024-02-23T12:38:38;1.80;;;0.67;;
4642;SDS011;2334;48.710;9.622;2024-02-23T12:41:05;3.40;;;0.63;;
4642;SDS011;2334;48.710;9.622;2024-02-23T12:43:33;2.43;;;0.70;;
4642;SDS011;2334;48.710;9.622;2024-02-23T12:46:00;6.43;;;0.83;;
4642;SDS011;2334;48.710;9.622;2024-02-23T12:48:28;4.07;;;1.00;;
4642;SDS011;2334;48.710;9.622;2024-02-23T12:50:55;4.60;;;0.90;;
4642;SDS011;2334;48.710;9.622;2024-02-23T12:53:31;4.23;;;1.43;;
4642;SDS011;2334;48.710;9.622;2024-02-23T12:56:04;1.60;;;0.80;;
4642;SDS011;2334;48.710;9.622;2024-02-23T12:58:35;2.10;;;0.73;;
4642;SDS011;2334;48.710;9.622;2024-02-23T13:01:02;7.53;;;3.10;;
4642;SDS011;2334;48.710;9.622;2024-02-23T13:03:31;2.70;;;0.90;;
4642;SDS011;2334;48.710;9.622;2024-02-23T13:05:58;2.20;;;0.80;;
4642;SDS011;2334;48.710;9.622;2024-02-23T13:08:25;1.43;;;0.70;;
4642;SDS011;2334;48.710;9.622;2024-02-23T13:10:55;0.77;;;0.60;;
4642;SDS011;2334;48.710;9.622;2024-02-23T13:13:24;1.33;;;0.73;;
4642;SDS011;2334;48.710;9.622;2024-02-23T13:15:52;2.73;;;0.73;;
4642;SDS011;2334;48.710;9.622;2024-02-23T13:18:20;3.17;;;2.53;;
4642;SDS011;2334;48.710;9.622;2024-02-23T13:20:47;1.70;;;0.70;;
4642;SDS011;2334;48.710;9.622;2024-02-23T13:23:14;1.60;;;0.70;;
4642;SDS011;2334;48.710;9.622;2024-02-23T13:25:41;3.97;;;0.70;;
4642;SDS011;2334;48.710;9.622;2024-02-23T13:28:13;1.40;;;0.60;;
4642;SDS011;2334;48.710;9.622;2024-02-23T13:30:41;1.90;;;0.90;;
4642;SDS011;2334;48.710;9.622;2024-02-23T13:33:10;1.67;;;0.70;;
4642;SDS011;2334;48.710;9.622;2024-02-23T13:35:37;5.03;;;1.00;;
4642;SDS011;2334;48.710;9.622;2024-02-23T13:38:05;3.47;;;0.73;;
4642;SDS011;2334;48.710;9.622;2024-02-23T13:40:34;4.13;;;0.90;;
4642;SDS011;2334;48.710;9.622;2024-02-23T13:43:01;0.80;;;0.70;;
4642;SDS011;2334;48.710;9.622;2024-02-23T13:45:27;0.57;;;0.57;;
4642;SDS011;2334;48.710;9.622;2024-02-23T13:47:57;2.03;;;0.80;;
4642;SDS011;2334;48.710;9.622;2024-02-23T13:50:25;1.90;;;0.87;;
4642;SDS011;2334;48.710;9.622;2024-02-23T13:52:52;2.23;;;0.83;;
4642;SDS011;2334;48.710;9.622;2024-02-23T13:55:19;0.73;;;0.67;;
4642;SDS011;2334;48.710;9.622;2024-02-23T13:57:46;1.00;;;0.83;;
4642;SDS011;2334;48.710;9.622;2024-02-23T14:00:15;2.93;;;1.00;;
4642;SDS011;2334;48.710;9.622;2024-02-23T14:02:42;4.80;;;1.00;;
4642;SDS011;2334;48.710;9.622;2024-02-23T14:05:11;4.23;;;0.83;;
4642;SDS011;2334;48.710;9.622;2024-02-23T14:07:38;3.50;;;1.00;;
4642;SDS011;2334;48.710;9.622;2024-02-23T14:10:06;4.40;;;1.03;;
4642;SDS011;2334;48.710;9.622;2024-02-23T14:12:34;6.17;;;0.90;;
4642;SDS011;2334;48.710;9.622;2024-02-23T14:15:01;1.63;;;0.83;;
4642;SDS011;2334;48.710;9.622;2024-02-23T14:17:30;2.97;;;1.00;;
4642;SDS011;2334;48.710;9.622;2024-02-23T14:19:57;6.30;;;1.03;;
4642;SDS011;2334;48.710;9.622;2024-02-23T14:22:25;3.50;;;0.80;;
4642;SDS011;2334;48.710;9.622;2024-02-23T14:24:54;6.50;;;0.93;;
4642;SDS011;2334;48.710;9.622;2024-02-23T14:27:21;2.07;;;0.93;;
4642;SDS011;2334;48.710;9.622;2024-02-23T14:29:51;5.13;;;1.17;;
4642;SDS011;2334;48.710;9.622;2024-02-23T14:32:18;1.77;;;0.87;;
4642;SDS011;2334;48.710;9.622;2024-02-23T14:34:46;6.73;;;1.03;;
4642;SDS011;2334;48.710;9.622;2024-02-23T14:37:16;1.10;;;0.93;;
4642;SDS011;2334;48.710;9.622;2024-02-23T14:39:44;5.70;;;0.90;;
4642;SDS011;2334;48.710;9.622;2024-02-23T14:42:11;9.23;;;1.10;;
4642;SDS011;2334;48.710;9.622;2024-02-23T14:44:49;8.47;;;0.90;;
4642;SDS011;2334;48.710;9.622;2024-02-23T14:47:16;2.67;;;0.80;;
4642;SDS011;2334;48.710;9.622;2024-02-23T14:49:43;2.30;;;0.90;;
4642;SDS011;2334;48.710;9.622;2024-02-23T14:52:10;9.87;;;0.90;;
4642;SDS011;2334;48.710;9.622;2024-02-23T14:54:37;2.83;;;1.03;;
4642;SDS011;2334;48.710;9.622;2024-02-23T14:57:05;2.73;;;0.80;;
4642;SDS011;2334;48.710;9.622;2024-02-23T14:59:34;2.90;;;0.70;;
4642;SDS011;2334;48.710;9.622;2024-02-23T15:02:06;0.73;;;0.73;;
4642;SDS011;2334;48.710;9.622;2024-02-23T15:04:37;1.10;;;0.80;;
4642;SDS011;2334;48.710;9.622;2024-02-23T15:07:06;4.13;;;1.37;;
4642;SDS011;2334;48.710;9.622;2024-02-23T15:09:35;11.30;;;1.50;;
4642;SDS011;2334;48.710;9.622;2024-02-23T15:12:10;2.10;;;0.70;;
4642;SDS011;2334;48.710;9.622;2024-02-23T15:14:40;1.90;;;0.60;;
4642;SDS011;2334;48.710;9.622;2024-02-23T15:17:07;7.20;;;0.90;;
4642;SDS011;2334;48.710;9.622;2024-02-23T15:19:34;2.50;;;0.80;;